createdAt,value
2022-09-12T00:04:28.327Z,101204.16
2022-09-12T00:09:29.917Z,101208.84
2022-09-12T00:14:34.997Z,101198.16
2022-09-12T00:19:36.405Z,101192.81
2022-09-12T00:24:37.844Z,101192.69
2022-09-12T00:29:39.251Z,101185.31
2022-09-12T00:34:40.712Z,101194.91
2022-09-12T00:39:43.493Z,101189.19
2022-09-12T00:44:50.141Z,101174.34
2022-09-12T00:50:00.866Z,101170.31
2022-09-12T00:55:05.226Z,101170.00
2022-09-12T01:00:15.635Z,101163.22
2022-09-12T01:05:17.531Z,101163.03
2022-09-12T01:10:20.317Z,101168.13
2022-09-12T01:15:22.664Z,101164.75
2022-09-12T01:20:41.476Z,101156.31
2022-09-12T01:26:01.805Z,101160.69
2022-09-12T01:31:28.750Z,101157.56
2022-09-12T01:37:08.287Z,101148.47
2022-09-12T01:42:31.573Z,101147.31
2022-09-12T01:47:54.533Z,101147.34
2022-09-12T01:53:08.009Z,101145.41
2022-09-12T01:58:14.492Z,101144.63
2022-09-12T02:03:24.090Z,101136.81
2022-09-12T02:08:31.358Z,101134.81
2022-09-12T02:13:46.808Z,101119.69
2022-09-12T02:18:55.317Z,101129.41
2022-09-12T02:24:01.275Z,101125.63
2022-09-12T02:29:04.419Z,101112.25
2022-09-12T02:34:09.743Z,101117.28
2022-09-12T02:39:11.163Z,101110.03
2022-09-12T02:44:12.807Z,101102.78
2022-09-12T02:49:16.546Z,101104.19
2022-09-12T02:54:19.836Z,101104.47
2022-09-12T02:59:24.251Z,101096.53
2022-09-12T03:05:02.723Z,101103.53
2022-09-12T03:10:32.686Z,101096.38
2022-09-12T03:15:42.979Z,101091.59
2022-09-12T03:21:09.780Z,101088.88
2022-09-12T03:26:26.161Z,101096.22
2022-09-12T03:31:27.657Z,101095.13
2022-09-12T03:36:30.410Z,101092.34
2022-09-12T03:41:31.829Z,101090.84
2022-09-12T03:46:33.702Z,101090.50
2022-09-12T03:51:35.140Z,101087.13
2022-09-12T03:56:36.986Z,101088.03
2022-09-12T04:01:38.397Z,101082.00
2022-09-12T04:06:39.778Z,101078.75
2022-09-12T04:11:41.380Z,101074.91
2022-09-12T04:16:42.870Z,101073.28
2022-09-12T04:21:44.378Z,101068.03
2022-09-12T04:26:45.946Z,101067.41
2022-09-12T04:31:48.310Z,101071.28
2022-09-12T04:36:49.750Z,101062.56
2022-09-12T04:41:51.838Z,101061.06
2022-09-12T04:46:53.322Z,101064.66
2022-09-12T04:51:57.587Z,101056.97
2022-09-12T04:56:59.834Z,101057.22
2022-09-12T05:02:02.183Z,101052.28
2022-09-12T05:07:05.247Z,101052.28
2022-09-12T05:12:07.551Z,101052.28
2022-09-12T05:17:09.114Z,101048.69
2022-09-12T05:22:10.575Z,101055.41
2022-09-12T05:27:11.962Z,101050.16
2022-09-12T05:32:13.605Z,101060.16
2022-09-12T05:37:15.105Z,101045.41
2022-09-12T05:42:16.507Z,101052.91
2022-09-12T05:47:18.811Z,101054.63
2022-09-12T05:52:20.313Z,101059.75
2022-09-12T05:57:21.842Z,101072.09
2022-09-12T06:02:23.281Z,101075.38
2022-09-12T06:07:24.758Z,101072.72
2022-09-12T06:12:29.875Z,101078.31
2022-09-12T06:17:31.372Z,101076.06
2022-09-12T06:22:32.880Z,101074.66
2022-09-12T06:27:34.273Z,101077.94
2022-09-12T06:32:35.930Z,101078.28
2022-09-12T06:37:37.351Z,101075.25
2022-09-12T06:42:38.868Z,101074.31
2022-09-12T06:47:40.437Z,101068.97
2022-09-12T06:52:41.875Z,101072.53
2022-09-12T06:57:43.992Z,101068.09
2022-09-12T07:02:45.675Z,101077.75
2022-09-12T07:07:47.185Z,101071.16
2022-09-12T07:12:48.726Z,101076.53
2022-09-12T07:17:50.124Z,101082.16
2022-09-12T07:22:51.811Z,101078.13
2022-09-12T07:27:53.597Z,101072.69
2022-09-12T07:32:55.082Z,101069.53
2022-09-12T07:37:56.485Z,101065.88
2022-09-12T07:42:58.819Z,101072.84
2022-09-12T07:48:00.862Z,101060.41
2022-09-12T07:53:03.720Z,101072.94
2022-09-12T07:58:05.177Z,101066.91
2022-09-12T08:03:07.181Z,101078.56
2022-09-12T08:08:08.728Z,101072.06
2022-09-12T08:13:10.874Z,101075.84
2022-09-12T08:18:12.571Z,101077.75
2022-09-12T08:23:14.300Z,101076.78
2022-09-12T08:28:17.239Z,101068.88
2022-09-12T08:33:18.768Z,101068.69
2022-09-12T08:38:20.486Z,101075.34
2022-09-12T08:44:13.512Z,101069.28
2022-09-12T08:49:37.001Z,101066.75
2022-09-12T08:54:39.479Z,101062.44
2022-09-12T08:59:45.943Z,101063.81
2022-09-12T09:04:52.770Z,101063.38
2022-09-12T09:10:00.324Z,101058.56
2022-09-12T09:15:21.986Z,101057.69
2022-09-12T09:20:33.303Z,101059.81
2022-09-12T09:25:56.837Z,101052.34
2022-09-12T09:30:58.613Z,101043.34
2022-09-12T09:36:16.862Z,101046.06
2022-09-12T09:41:41.335Z,101039.16
2022-09-12T09:46:42.995Z,101040.31
2022-09-12T09:51:45.246Z,101035.34
2022-09-12T09:56:47.454Z,101035.06
2022-09-12T10:01:57.531Z,101019.97
2022-09-12T10:07:01.242Z,101018.44
2022-09-12T10:12:24.985Z,101013.84
2022-09-12T10:17:44.113Z,101016.28
2022-09-12T10:22:47.593Z,101007.69
2022-09-12T10:27:58.462Z,100996.31
2022-09-12T10:33:08.767Z,100996.91
2022-09-12T10:38:21.310Z,100993.66
2022-09-12T10:43:38.936Z,100978.13
2022-09-12T10:48:40.556Z,100980.72
2022-09-12T10:53:46.249Z,100981.59
2022-09-12T10:59:08.591Z,100966.63
2022-09-12T11:04:22.042Z,100964.19
2022-09-12T11:09:23.878Z,100960.31
2022-09-12T11:14:36.613Z,100946.09
2022-09-12T11:19:54.456Z,100942.97
2022-09-12T11:25:12.127Z,100935.78
2022-09-12T11:30:17.359Z,100929.06
2022-09-12T11:35:24.677Z,100926.84
2022-09-12T11:40:38.231Z,100925.34
2022-09-12T11:45:45.835Z,100924.56
2022-09-12T11:50:47.410Z,100913.28
2022-09-12T11:55:56.579Z,100917.00
2022-09-12T12:01:03.132Z,100912.75
2022-09-12T12:06:12.435Z,100900.66
2022-09-12T12:11:25.575Z,100901.41
2022-09-12T12:16:30.667Z,100893.97
2022-09-12T12:21:47.942Z,100887.56
2022-09-12T12:26:58.611Z,100886.94
2022-09-12T12:32:00.553Z,100880.22
2022-09-12T12:37:20.800Z,100870.13
2022-09-12T12:42:34.363Z,100862.50
2022-09-12T12:47:35.707Z,100858.78
2022-09-12T12:53:00.940Z,100858.25
2022-09-12T12:58:03.933Z,100849.88
2022-09-12T13:03:08.303Z,100849.38
2022-09-12T13:08:27.426Z,100847.03
2022-09-12T13:13:40.049Z,100846.66
2022-09-12T13:18:49.893Z,100840.59
2022-09-12T13:24:12.749Z,100827.34
2022-09-12T13:29:19.737Z,100836.47
2022-09-12T13:34:24.905Z,100822.13
2022-09-12T13:39:54.177Z,100820.81
2022-09-12T13:45:04.764Z,100819.59
2022-09-12T13:50:12.624Z,100803.53
2022-09-12T13:55:32.776Z,100799.84
2022-09-12T14:00:34.970Z,100789.03
2022-09-12T14:05:39.685Z,100793.06
2022-09-12T14:10:44.423Z,100784.44
2022-09-12T14:15:49.063Z,100782.97
2022-09-12T14:20:54.917Z,100766.16
2022-09-12T14:25:59.948Z,100763.56
2022-09-12T14:31:04.770Z,100763.75
2022-09-12T14:36:24.562Z,100754.19
2022-09-12T14:41:36.094Z,100756.72
2022-09-12T14:46:39.454Z,100749.03
2022-09-12T14:51:51.692Z,100750.63
2022-09-12T14:56:56.731Z,100749.94
2022-09-12T15:02:16.886Z,100748.28
2022-09-12T15:07:32.430Z,100744.78
2022-09-12T15:12:34.883Z,100735.22
2022-09-12T15:17:36.281Z,100726.31
2022-09-12T15:22:38.726Z,100729.38
2022-09-12T15:27:42.783Z,100714.66
2022-09-12T15:32:44.582Z,100714.34
2022-09-12T15:37:47.133Z,100713.00
2022-09-12T15:42:48.636Z,100707.94
2022-09-12T15:47:50.156Z,100697.31
2022-09-12T15:52:51.732Z,100695.00
2022-09-12T15:57:53.521Z,100685.84
2022-09-12T16:02:55.244Z,100686.16
2022-09-12T16:07:56.733Z,100672.94
2022-09-12T16:12:59.610Z,100665.09
2022-09-12T16:18:01.013Z,100668.31
2022-09-12T16:23:03.044Z,100661.25
2022-09-12T16:28:05.755Z,100655.94
2022-09-12T16:33:07.154Z,100669.66
2022-09-12T16:38:08.530Z,100658.47
2022-09-12T16:43:09.927Z,100644.41
2022-09-12T16:48:11.391Z,100652.34
2022-09-12T16:53:13.104Z,100651.09
2022-09-12T16:58:14.516Z,100641.72
2022-09-12T17:03:18.848Z,100644.59
2022-09-12T17:08:22.772Z,100633.88
2022-09-12T17:13:27.439Z,100638.19
2022-09-12T17:18:38.946Z,100632.06
2022-09-12T17:23:41.083Z,100631.09
2022-09-12T17:28:42.604Z,100618.06
2022-09-12T17:33:44.171Z,100619.31
2022-09-12T17:38:46.022Z,100616.09
2022-09-12T17:43:50.765Z,100603.88
2022-09-12T17:48:53.935Z,100610.41
2022-09-12T17:54:08.210Z,100600.06
2022-09-12T17:59:14.582Z,100610.50
2022-09-12T18:04:16.885Z,100603.75
2022-09-12T18:09:21.910Z,100608.22
2022-09-12T18:14:23.490Z,100603.53
2022-09-12T18:19:24.977Z,100601.44
2022-09-12T18:24:26.614Z,100599.03
2022-09-12T18:29:28.258Z,100599.75
2022-09-12T18:34:29.717Z,100587.84
2022-09-12T18:39:31.280Z,100592.47
2022-09-12T18:44:32.957Z,100586.44
2022-09-12T18:49:34.423Z,100575.09
2022-09-12T18:54:36.451Z,100570.38
2022-09-12T18:59:37.989Z,100566.38
2022-09-12T19:04:39.451Z,100567.59
2022-09-12T19:09:40.957Z,100581.53
2022-09-12T19:14:42.396Z,100588.00
2022-09-12T19:19:44.063Z,100583.50
2022-09-12T19:24:45.511Z,100573.28
2022-09-12T19:29:47.030Z,100580.03
2022-09-12T19:34:48.951Z,100587.38
2022-09-12T19:39:50.398Z,100583.72
2022-09-12T19:44:55.898Z,100591.06
2022-09-12T19:49:57.419Z,100583.91
2022-09-12T19:54:58.818Z,100584.34
2022-09-12T20:00:00.355Z,100583.91
2022-09-12T20:05:01.981Z,100581.09
2022-09-12T20:10:03.566Z,100580.03
2022-09-12T20:15:05.870Z,100572.03
2022-09-12T20:20:11.338Z,100569.00
2022-09-12T20:25:12.807Z,100564.84
2022-09-12T20:30:15.350Z,100555.38
2022-09-12T20:35:17.244Z,100560.59
2022-09-12T20:40:18.668Z,100553.56
2022-09-12T20:45:20.119Z,100549.81
2022-09-12T20:50:21.645Z,100559.44
2022-09-12T20:55:23.139Z,100551.16
2022-09-12T21:00:24.776Z,100545.56
2022-09-12T21:05:26.257Z,100537.22
2022-09-12T21:10:27.714Z,100536.47
2022-09-12T21:15:29.110Z,100527.78
2022-09-12T21:20:31.221Z,100523.09
2022-09-12T21:25:32.621Z,100536.25
2022-09-12T21:30:34.008Z,100537.75
2022-09-12T21:35:35.995Z,100524.56
2022-09-12T21:40:37.422Z,100510.97
2022-09-12T21:45:38.805Z,100514.41
2022-09-12T21:50:40.278Z,100529.84
2022-09-12T21:55:41.734Z,100539.03
2022-09-12T22:00:43.921Z,100549.81
2022-09-12T22:05:45.732Z,100549.63
2022-09-12T22:10:47.504Z,100543.41
2022-09-12T22:15:52.880Z,100544.03
2022-09-12T22:21:22.040Z,100555.22
2022-09-12T22:26:23.950Z,100578.13
2022-09-12T22:31:26.978Z,100585.06
2022-09-12T22:36:31.315Z,100572.84
2022-09-12T22:41:33.372Z,100568.63
2022-09-12T22:46:34.830Z,100561.59
2022-09-12T22:51:36.589Z,100555.22
2022-09-12T22:56:38.206Z,100554.06
2022-09-12T23:01:39.652Z,100549.97
2022-09-12T23:06:41.075Z,100542.09
2022-09-12T23:11:42.459Z,100540.72
2022-09-12T23:16:43.909Z,100538.84
2022-09-12T23:21:45.305Z,100536.47
2022-09-12T23:26:46.751Z,100531.22
2022-09-12T23:31:48.553Z,100535.78
2022-09-12T23:36:49.995Z,100535.09
2022-09-12T23:41:52.776Z,100525.38
2022-09-12T23:46:54.231Z,100522.13
2022-09-12T23:51:55.636Z,100527.72
2022-09-12T23:56:57.201Z,100527.09
